الصفحة الرئيسية
METAR-TAF:

METAR-TAF

مطار :

مطار فا الدولي

تاهيتي, بولينسيا الفرنسية

دائرة عرض: 17-33S, خط طول: 149-37W, ارتفاع: 2 متر

مراقبة الطقس الحالي

تاريخ ووقت الإصدار 6 دقيقة قبل الساعة 15:30UTC
ريح 6 عقدة من الشرق/الشمال الشرقي
درجة الحرارة 25°درجة مئوية
الرطوبة 69%
ضغط 1013 hPa
الرؤية 10 كم أو أكثر

METAR: NTAA 211530Z AUTO 07006KT 9999 NCD 25/19 Q1013 NOSIG

زمن: 05:36 (15:36 UTC)

توقعات

تاريخ ووقت الإصدار 4ساعات و 36 دقيقة قبل الساعة 11:00UTC
التوقعات صالحة من21 الساعة 12 UTC إلى 22 الساعة 18 UTC
ريح 5 عقدةمن اتجاهات متغيرة
الرؤية 10 كم أو أكثر
غيوم قليلة على ارتفاع 2500 قدم
أصبح
من 21 الساعة 18 UTC إلى 21 الساعة 19 UTC
ريح 12 عقدة من الشمال الشرقي
أصبح
من 22 الساعة 03 UTC إلى 22 الساعة 05 UTC
ريح 5 عقدةمن اتجاهات متغيرة

TAF: NTAA 211100Z 2112/2218 VRB05KT 9999 FEW025 BECMG 2118/2119 05012KT BECMG 2203/2205 VRB05KT

أرصاد الطقس والتوقعات من أكثر من 4000 مطار (تقارير الطقس للمطار METAR والتنبؤ بالطقس بالمطارTAF).

المحطات المتاحة هي النقط الصفراء والحمراء على الخريطة.

حرك المؤشر فوق النقطة لمعرفة اسم المحطة.

ثم انقر لمعرفة أرصاد وتوقعات الطقس.

لتغيير الخارطة: اضغط على الأزرار الخضراء مع رمز الصليب الأسود للتكبير. على الزر الأخضر مع شرطة للتصغير، أو على الأسهم الخضراء للخرائط المجاورة.


METAR-TAF: